• Join FlightAware (Why Join?)
  • Login
  • US Flag 
07:40PM EST


 

Airport Tracker/Info


-or-


 

Live Flight TrackerFlight Track Log ✈ UAL4663 ✈ 17-Aug-2014 ✈ KIAH - KATL

Flight Track Log - Related Links

Times and Time Zones

All times are in EDT time to prevent confusion due to time zone crossing. See the UAL4663 flight status page for this flight to view local times or setup timezone preferences in your user account.

Time Position Orientation Groundspeed Altitude Reporting Facility
EDT Latitude Longitude Course Direction KTS MPH feet Rate Location/Type
09:17AM 29.9594 -95.3414 132° Southeast 158 182 800  Level Houston Center
09:18AM 29.9356 -95.3106 132° Southeast 173 199 1,900 1,282 Climbing Houston Center
09:18AM 29.8992 -95.2572 128° Southeast 249 287 3,000 1,217 Climbing Houston Center
09:19AM 29.8922 -95.2436 120° Southeast 218 251 3,300 1,636 Climbing Houston Center
09:19AM 29.8594 -95.1919 126° Southeast 270 311 4,500 1,279 Climbing Houston Center
09:20AM 29.8492 -95.1744 124° Southeast 254 292 4,600 1,279 Climbing Houston Center
09:20AM 29.8231 -95.1169 118° Southeast 282 325 5,800 1,770 Climbing Houston Center
09:21AM 29.8219 -95.0936 93° East 273 314 6,400 1,967 Climbing Houston Center
09:21AM 29.8192 -95.0283 93° East 280 322 7,800 1,967 Climbing Houston Center
09:22AM 29.8186 -95.0031 91° East 281 323 8,400 1,881 Climbing Houston Center
09:23AM 29.8325 -94.9256 78° East 306 352 9,900 1,742 Climbing Houston Center
09:23AM 29.8367 -94.9119 71° East 293 337 10,200 857 Climbing Houston Center
09:24AM 29.8619 -94.8153 73° East 309 356 11,000 738 Climbing Houston Center
09:25AM 29.8922 -94.7061 72° East 352 405 11,700 934 Climbing Houston Center
09:26AM 29.9214 -94.5908 74° East 368 423 12,900 1,171 Climbing Houston Center
09:27AM 29.9528 -94.4731 73° East 373 429 14,100 1,171 Climbing Houston Center
09:28AM 29.9828 -94.3589 73° East 373 429 15,300 1,131 Climbing Houston Center
09:29AM 30.0053 -94.2442 77° East 371 427 16,400 1,131 Climbing Houston Center
09:30AM 30.0208 -94.1025 83° East 371 427 17,600 1,033 Climbing Houston Center
09:31AM 30.0350 -93.9850 82° East 371 427 18,500 934 Climbing Houston Center
09:32AM 30.0500 -93.8678 82° East 371 427 19,500 976 Climbing Houston Center
09:33AM 30.0642 -93.7486 82° East 374 430 20,500 976 Climbing Houston Center
09:34AM 30.0786 -93.6303 82° East 374 430 21,500 984 Climbing Houston Center
09:35AM 30.0936 -93.5103 82° East 377 434 22,500 984 Climbing Houston Center
09:36AM 30.1083 -93.3908 82° East 378 435 23,500 1,082 Climbing Houston Center
09:37AM 30.1244 -93.2458 83° East 382 440 24,700 1,073 Climbing Houston Center
09:38AM 30.1397 -93.1269 82° East 382 440 25,700 976 Climbing Houston Center
09:39AM 30.1603 -93.0092 79° East 380 437 26,700 885 Climbing Houston Center
09:40AM 30.1842 -92.8917 77° East 380 437 27,500 780 Climbing Houston Center
09:41AM 30.2072 -92.7733 77° East 379 436 28,300 780 Climbing Houston Center
09:42AM 30.2297 -92.6525 78° East 382 440 29,100 787 Climbing Houston Center
09:43AM 30.2533 -92.5331 77° East 383 441 29,900 787 Climbing Houston Center
09:44AM 30.2767 -92.4122 77° East 383 441 30,700 829 Climbing Houston Center
09:45AM 30.3031 -92.2756 77° East 389 448 31,600 829 Climbing Houston Center
09:46AM 30.3258 -92.1542 78° East 389 448 32,400 689 Climbing Houston Center
09:47AM 30.3494 -92.0308 77° East 390 449 33,000 293 Climbing Houston Center
09:48AM 30.3728 -91.9019 78° East 407 468 33,000  Level Houston Center
09:49AM 30.3978 -91.7672 78° East 425 489 33,000 -49 Level Houston Center
09:50AM 30.4294 -91.6017 77° East 442 509 32,900  Descending Houston Center
09:51AM 30.4544 -91.4592 78° East 449 517 33,000 49 Climbing Houston Center
09:52AM 30.4803 -91.3172 78° East 449 517 33,000  Level Houston Center
09:53AM 30.5122 -91.1739 75° East 453 521 33,000  Level Houston Center
09:54AM 30.5481 -91.0300 74° East 461 531 33,000  Level Houston Center
09:55AM 30.5800 -90.8856 76° East 462 532 33,000  Level Houston Center
09:56AM 30.6122 -90.7417 75° East 462 532 33,000  Level Houston Center
09:57AM 30.6442 -90.5961 76° East 462 532 33,000  Level Houston Center
09:59AM 30.6836 -90.4228 75° East 462 532 33,000  Level Houston Center
10:00AM 30.7158 -90.2783 75° East 462 532 33,000  Level Houston Center
10:01AM 30.7478 -90.1325 76° East 462 532 33,000  Level Houston Center
10:02AM 30.7811 -89.9883 75° East 462 532 33,000  Level Houston Center
10:03AM 30.8017 -89.8411 81° East 462 532 33,000  Level Houston Center
10:04AM 30.8000 -89.6911 91° East 461 531 33,000  Level Houston Center
10:05AM 30.7994 -89.5417 90° East 461 531 33,000  Level Houston Center
10:06AM 30.8389 -89.4017 72° East 456 525 33,000 -49 Level Houston Center
10:07AM 30.8894 -89.2642 67° East 458 527 32,900  Descending Houston Center
10:08AM 30.9389 -89.1253 67° East 459 528 33,000 49 Climbing Houston Center
10:09AM 30.9978 -88.9617 67° East 459 528 33,000  Level Houston Center
10:10AM 31.0544 -88.8269 64° Northeast 459 528 33,000  Level Houston Center
10:11AM 31.1142 -88.6947 62° Northeast 458 527 33,000  Level Houston Center
10:12AM 31.1714 -88.5631 63° Northeast 458 527 33,000  Level Houston Center
10:13AM 31.2308 -88.4294 62° Northeast 463 533 33,000  Level Houston Center
10:14AM 31.2925 -88.2889 63° Northeast 463 533 33,000  Level Houston Center
10:15AM 31.3514 -88.1539 63° Northeast 462 532 33,000  Level Houston Center
10:16AM 31.4094 -88.0197 63° Northeast 461 531 33,000  Level Houston Center
10:17AM 31.4686 -87.8858 63° Northeast 461 531 33,000  Level Houston Center
10:18AM 31.5422 -87.7617 55° Northeast 460 529 33,000  Level Houston Center
10:19AM 31.6181 -87.6383 54° Northeast 463 533 33,000  Level Houston Center
10:20AM 31.7064 -87.4903 55° Northeast 463 533 33,000 -49 Level Houston Center
10:21AM 31.7817 -87.3664 54° Northeast 463 533 32,900 -537 Descending Houston Center
10:22AM 31.8550 -87.2447 55° Northeast 459 528 31,900 -968 Descending Houston Center
10:23AM 31.9275 -87.1242 55° Northeast 455 524 30,900 -1,007 Descending Houston Center
10:24AM 32.0250 -86.9614 55° Northeast 448 516 29,600 -933 Descending Atlanta Center
10:25AM 32.1008 -86.8411 53° Northeast 448 516 28,800 -1,000 Descending Atlanta Center
10:26AM 32.1747 -86.7161 55° Northeast 460 529 27,600 -1,150 Descending Atlanta Center
10:27AM 32.2500 -86.6053 51° Northeast 472 543 26,500 -1,150 Descending Atlanta Center
10:28AM 32.3236 -86.4747 56° Northeast 472 543 25,300 -1,250 Descending Atlanta Center
10:29AM 32.4036 -86.3317 56° Northeast 472 543 24,000 -650 Descending Atlanta Center
10:30AM 32.4789 -86.2081 54° Northeast 465 535 24,000  Level Atlanta Center
10:31AM 32.5478 -86.0964 54° Northeast 465 535 24,000  Level Atlanta Center
10:32AM 32.6206 -85.9697 56° Northeast 465 535 24,000  Level Atlanta Center
10:33AM 32.6956 -85.8481 54° Northeast 465 535 24,000  Level Atlanta Center
10:34AM 32.7725 -85.7236 54° Northeast 465 535 24,000  Level Atlanta Center
10:35AM 32.8472 -85.5967 55° Northeast 465 535 24,000 -500 Level Atlanta Center
10:36AM 32.9217 -85.4717 55° Northeast 465 535 23,000 -2,033 Descending Atlanta Center
10:38AM 33.0664 -85.2286 55° Northeast 441 507 17,900 -2,367 Descending Atlanta Center
10:39AM 33.1361 -85.1156 54° Northeast 430 495 15,900 -1,950 Descending Atlanta Center
10:40AM 33.2019 -85.0094 53° Northeast 415 478 14,000 -1,500 Descending Atlanta Center
10:41AM 33.2714 -84.9158 48° Northeast 387 445 12,900 -1,050 Descending Atlanta Center
10:42AM 33.3450 -84.8197 47° Northeast 382 440 11,900 -439 Descending Atlanta Center
10:43AM 33.4333 -84.7167 44° Northeast 389 448 12,000 49 Climbing Atlanta TRACON
10:44AM 33.5000 -84.6333 46° Northeast 313 360 12,000 -150 Level Atlanta TRACON
10:45AM 33.5333 -84.5667 59° Northeast 266 306 11,700 -821 Descending Atlanta TRACON
10:46AM 33.5367 -84.4825 87° East 265 305 10,400 -1,436 Descending Atlanta Center
10:47AM 33.5369 -84.3903 90° East 265 305 8,900 -1,597 Descending Atlanta Center
10:48AM 33.5333 -84.3000 93° East 268 308 7,100 -1,756 Descending Atlanta TRACON
10:49AM 33.5500 -84.2167 76° East 253 291 5,300 -1,714 Descending Atlanta TRACON
10:50AM 33.6167 -84.2167 360° North 219 252 3,700 -1,200 Descending Atlanta TRACON
10:51AM 33.6167 -84.2833 270° West 169 194 2,900 -700 Descending Atlanta TRACON
10:52AM 33.6167 -84.3333 270° West 159 183 2,300 -600 Descending Atlanta TRACON
10:54AM 33.6333 -84.4167 316° Northwest  Level FlightAware Approximate